sensor_id;sensor_type;location;lat;lon;timestamp;pressure;altitude;pressure_sealevel;temperature;humidity
10060;BME280;5069;49.306;8.636;2023-03-03T00:01:00;100825.66;;;4.52;83.64
10060;BME280;5069;49.306;8.636;2023-03-03T00:04:02;100830.91;;;4.55;82.79
10060;BME280;5069;49.306;8.636;2023-03-03T00:07:03;100831.75;;;4.60;83.68
10060;BME280;5069;49.306;8.636;2023-03-03T00:10:05;100832.59;;;4.67;83.15
10060;BME280;5069;49.306;8.636;2023-03-03T00:13:19;100838.66;;;4.69;83.00
10060;BME280;5069;49.306;8.636;2023-03-03T00:16:36;100833.47;;;4.72;81.96
10060;BME280;5069;49.306;8.636;2023-03-03T00:19:38;100828.25;;;4.72;82.50
10060;BME280;5069;49.306;8.636;2023-03-03T00:22:42;100830.81;;;4.73;81.92
10060;BME280;5069;49.306;8.636;2023-03-03T00:25:44;100830.00;;;4.64;82.38
10060;BME280;5069;49.306;8.636;2023-03-03T00:28:50;100830.00;;;4.59;81.94
10060;BME280;5069;49.306;8.636;2023-03-03T00:31:53;100828.28;;;4.50;82.35
10060;BME280;5069;49.306;8.636;2023-03-03T00:35:00;100834.38;;;4.45;83.98
10060;BME280;5069;49.306;8.636;2023-03-03T00:38:18;100844.81;;;4.39;83.91
10060;BME280;5069;49.306;8.636;2023-03-03T00:41:25;100847.44;;;4.43;84.30
10060;BME280;5069;49.306;8.636;2023-03-03T00:44:45;100834.38;;;4.45;83.96
10060;BME280;5069;49.306;8.636;2023-03-03T00:47:47;100847.41;;;4.45;83.63
10060;BME280;5069;49.306;8.636;2023-03-03T00:50:49;100833.50;;;4.41;83.40
10060;BME280;5069;49.306;8.636;2023-03-03T00:53:51;100836.16;;;4.26;84.29
10060;BME280;5069;49.306;8.636;2023-03-03T00:56:52;100841.38;;;4.11;84.87
10060;BME280;5069;49.306;8.636;2023-03-03T00:59:54;100845.75;;;3.98;85.36
10060;BME280;5069;49.306;8.636;2023-03-03T01:02:55;100849.19;;;3.85;86.26
10060;BME280;5069;49.306;8.636;2023-03-03T01:05:57;100845.72;;;3.85;86.23
10060;BME280;5069;49.306;8.636;2023-03-03T01:08:59;100850.94;;;3.85;86.34
10060;BME280;5069;49.306;8.636;2023-03-03T01:12:00;100852.66;;;3.77;86.13
10060;BME280;5069;49.306;8.636;2023-03-03T01:15:02;100840.47;;;3.72;86.84
10060;BME280;5069;49.306;8.636;2023-03-03T01:18:03;100839.63;;;3.75;86.75
10060;BME280;5069;49.306;8.636;2023-03-03T01:21:05;100839.59;;;3.77;86.26
10060;BME280;5069;49.306;8.636;2023-03-03T01:24:06;100840.47;;;3.66;86.56
10060;BME280;5069;49.306;8.636;2023-03-03T01:27:08;100844.78;;;3.55;87.26
10060;BME280;5069;49.306;8.636;2023-03-03T01:30:09;100843.91;;;3.53;87.67
10060;BME280;5069;49.306;8.636;2023-03-03T01:33:11;100840.41;;;3.42;87.48
10060;BME280;5069;49.306;8.636;2023-03-03T01:36:13;100848.16;;;3.19;87.94
10060;BME280;5069;49.306;8.636;2023-03-03T01:39:15;100843.78;;;3.05;89.99
10060;BME280;5069;49.306;8.636;2023-03-03T01:42:16;100845.53;;;3.15;90.39
10060;BME280;5069;49.306;8.636;2023-03-03T01:45:27;100843.84;;;3.23;89.79
10060;BME280;5069;49.306;8.636;2023-03-03T01:48:38;100848.97;;;3.08;89.43
10060;BME280;5069;49.306;8.636;2023-03-03T01:51:48;100841.97;;;2.91;90.03
10060;BME280;5069;49.306;8.636;2023-03-03T01:54:55;100842.91;;;3.00;90.14
10060;BME280;5069;49.306;8.636;2023-03-03T01:58:07;100835.06;;;2.97;89.60
10060;BME280;5069;49.306;8.636;2023-03-03T02:01:13;100837.66;;;2.98;89.61
10060;BME280;5069;49.306;8.636;2023-03-03T02:04:16;100842.84;;;2.87;88.83
10060;BME280;5069;49.306;8.636;2023-03-03T02:07:19;100850.16;;;2.12;92.33
10060;BME280;5069;49.306;8.636;2023-03-03T02:10:22;100845.88;;;2.15;94.94
10060;BME280;5069;49.306;8.636;2023-03-03T02:13:24;100845.97;;;2.27;94.37
10060;BME280;5069;49.306;8.636;2023-03-03T02:16:28;100839.97;;;2.42;93.58
10060;BME280;5069;49.306;8.636;2023-03-03T02:22:50;100839.97;;;2.39;92.28
10060;BME280;5069;49.306;8.636;2023-03-03T02:29:02;100846.06;;;2.47;92.75
10060;BME280;5069;49.306;8.636;2023-03-03T02:32:04;100843.50;;;2.53;92.76
10060;BME280;5069;49.306;8.636;2023-03-03T02:35:25;100835.75;;;2.56;92.54
10060;BME280;5069;49.306;8.636;2023-03-03T02:38:44;100837.50;;;2.60;92.38
10060;BME280;5069;49.306;8.636;2023-03-03T02:41:54;100845.28;;;2.60;92.06
10060;BME280;5069;49.306;8.636;2023-03-03T02:45:04;100839.97;;;2.45;91.61
10060;BME280;5069;49.306;8.636;2023-03-03T02:48:06;100839.06;;;2.35;92.90
10060;BME280;5069;49.306;8.636;2023-03-03T02:51:07;100837.38;;;2.45;92.68
10060;BME280;5069;49.306;8.636;2023-03-03T02:54:10;100838.34;;;2.56;92.34
10060;BME280;5069;49.306;8.636;2023-03-03T02:57:12;100840.09;;;2.60;91.55
10060;BME280;5069;49.306;8.636;2023-03-03T03:00:14;100833.06;;;2.47;90.03
10060;BME280;5069;49.306;8.636;2023-03-03T03:03:15;100836.38;;;2.25;91.92
10060;BME280;5069;49.306;8.636;2023-03-03T03:06:19;100840.56;;;2.03;92.69
10060;BME280;5069;49.306;8.636;2023-03-03T03:09:23;100841.34;;;1.94;93.27
10060;BME280;5069;49.306;8.636;2023-03-03T03:12:26;100838.75;;;1.94;93.49
10060;BME280;5069;49.306;8.636;2023-03-03T03:15:30;100829.28;;;2.05;93.50
10060;BME280;5069;49.306;8.636;2023-03-03T03:18:31;100834.63;;;2.19;92.54
10060;BME280;5069;49.306;8.636;2023-03-03T03:21:34;100837.13;;;2.08;91.45
10060;BME280;5069;49.306;8.636;2023-03-03T03:24:37;100837.06;;;2.01;92.52
10060;BME280;5069;49.306;8.636;2023-03-03T03:27:42;100835.34;;;2.01;92.21
10060;BME280;5069;49.306;8.636;2023-03-03T03:30:44;100846.63;;;2.03;92.12
10060;BME280;5069;49.306;8.636;2023-03-03T03:33:46;100855.22;;;1.96;91.44
10060;BME280;5069;49.306;8.636;2023-03-03T03:36:49;100856.91;;;1.90;92.08
10060;BME280;5069;49.306;8.636;2023-03-03T03:39:52;100861.22;;;1.86;91.38
10060;BME280;5069;49.306;8.636;2023-03-03T03:42:55;100854.25;;;1.84;93.64
10060;BME280;5069;49.306;8.636;2023-03-03T03:45:57;100856.03;;;1.89;94.59
10060;BME280;5069;49.306;8.636;2023-03-03T03:48:59;100843.88;;;1.85;94.13
10060;BME280;5069;49.306;8.636;2023-03-03T03:52:01;100862.09;;;1.87;94.66
10060;BME280;5069;49.306;8.636;2023-03-03T03:55:05;100870.81;;;1.92;95.26
10060;BME280;5069;49.306;8.636;2023-03-03T03:58:12;100867.19;;;1.78;94.92
10060;BME280;5069;49.306;8.636;2023-03-03T04:01:14;100870.59;;;1.72;95.65
10060;BME280;5069;49.306;8.636;2023-03-03T04:04:20;100861.13;;;1.76;96.56
10060;BME280;5069;49.306;8.636;2023-03-03T04:07:22;100866.41;;;1.86;97.10
10060;BME280;5069;49.306;8.636;2023-03-03T04:10:24;100852.53;;;1.84;97.54
10060;BME280;5069;49.306;8.636;2023-03-03T04:13:26;100863.63;;;1.68;96.15
10060;BME280;5069;49.306;8.636;2023-03-03T04:16:29;100867.94;;;1.64;97.22
10060;BME280;5069;49.306;8.636;2023-03-03T04:19:31;100868.91;;;1.76;97.87
10060;BME280;5069;49.306;8.636;2023-03-03T04:22:32;100872.22;;;1.61;95.55
10060;BME280;5069;49.306;8.636;2023-03-03T04:25:36;100866.88;;;1.49;97.00
10060;BME280;5069;49.306;8.636;2023-03-03T04:28:46;100867.75;;;1.49;97.16
10060;BME280;5069;49.306;8.636;2023-03-03T04:31:47;100868.63;;;1.47;96.63
10060;BME280;5069;49.306;8.636;2023-03-03T04:34:50;100860.66;;;1.33;97.05
10060;BME280;5069;49.306;8.636;2023-03-03T04:38:07;100865.91;;;1.38;97.37
10060;BME280;5069;49.306;8.636;2023-03-03T04:41:10;100859.97;;;1.48;98.48
10060;BME280;5069;49.306;8.636;2023-03-03T04:44:13;100867.72;;;1.45;97.10
10060;BME280;5069;49.306;8.636;2023-03-03T04:47:14;100874.56;;;1.38;96.49
10060;BME280;5069;49.306;8.636;2023-03-03T04:50:16;100870.25;;;1.39;96.69
10060;BME280;5069;49.306;8.636;2023-03-03T04:53:19;100872.84;;;1.39;96.77
10060;BME280;5069;49.306;8.636;2023-03-03T04:56:20;100878.06;;;1.40;96.76
10060;BME280;5069;49.306;8.636;2023-03-03T04:59:23;100876.09;;;1.21;96.56
10060;BME280;5069;49.306;8.636;2023-03-03T05:02:24;100886.41;;;1.15;97.97
10060;BME280;5069;49.306;8.636;2023-03-03T05:05:26;100894.97;;;1.06;97.96
10060;BME280;5069;49.306;8.636;2023-03-03T05:08:27;100894.13;;;1.07;98.16
10060;BME280;5069;49.306;8.636;2023-03-03T05:11:29;100898.34;;;0.99;97.43
10060;BME280;5069;49.306;8.636;2023-03-03T05:14:30;100904.28;;;0.92;98.57
10060;BME280;5069;49.306;8.636;2023-03-03T05:17:32;100893.81;;;0.86;98.76
10060;BME280;5069;49.306;8.636;2023-03-03T05:20:33;100895.72;;;0.96;99.55
10060;BME280;5069;49.306;8.636;2023-03-03T05:23:35;100898.53;;;1.13;98.27
10060;BME280;5069;49.306;8.636;2023-03-03T05:26:36;100902.94;;;1.21;97.17
10060;BME280;5069;49.306;8.636;2023-03-03T05:29:39;100910.00;;;1.30;95.56
10060;BME280;5069;49.306;8.636;2023-03-03T05:32:40;100912.59;;;1.30;94.89
10060;BME280;5069;49.306;8.636;2023-03-03T05:35:42;100911.66;;;1.27;94.54
10060;BME280;5069;49.306;8.636;2023-03-03T05:38:44;100927.31;;;1.30;95.40
10060;BME280;5069;49.306;8.636;2023-03-03T05:41:45;100927.09;;;1.13;95.00
10060;BME280;5069;49.306;8.636;2023-03-03T05:44:47;100931.19;;;0.97;95.92
10060;BME280;5069;49.306;8.636;2023-03-03T05:47:52;100935.41;;;0.89;97.38
10060;BME280;5069;49.306;8.636;2023-03-03T05:50:57;100943.06;;;0.81;97.79
10060;BME280;5069;49.306;8.636;2023-03-03T05:53:58;100947.34;;;0.78;98.18
10060;BME280;5069;49.306;8.636;2023-03-03T05:57:00;100943.84;;;0.76;98.57
10060;BME280;5069;49.306;8.636;2023-03-03T06:00:03;100951.56;;;0.68;98.17
10060;BME280;5069;49.306;8.636;2023-03-03T06:03:12;100955.00;;;0.69;97.42
10060;BME280;5069;49.306;8.636;2023-03-03T06:06:14;100962.69;;;0.63;97.90
10060;BME280;5069;49.306;8.636;2023-03-03T06:09:17;100959.19;;;0.61;98.00
10060;BME280;5069;49.306;8.636;2023-03-03T06:12:19;100955.84;;;0.66;98.20
10060;BME280;5069;49.306;8.636;2023-03-03T06:15:22;100958.38;;;0.63;97.21
10060;BME280;5069;49.306;8.636;2023-03-03T06:18:28;100958.38;;;0.62;97.16
10060;BME280;5069;49.306;8.636;2023-03-03T06:21:30;100967.16;;;0.71;97.78
10060;BME280;5069;49.306;8.636;2023-03-03T06:24:31;100962.09;;;0.80;97.74
10060;BME280;5069;49.306;8.636;2023-03-03T06:27:32;100966.47;;;0.83;96.67
10060;BME280;5069;49.306;8.636;2023-03-03T06:30:34;100956.13;;;0.86;96.34
10060;BME280;5069;49.306;8.636;2023-03-03T06:33:35;100966.66;;;0.95;96.84
10060;BME280;5069;49.306;8.636;2023-03-03T06:36:38;100968.34;;;0.93;96.22
10060;BME280;5069;49.306;8.636;2023-03-03T06:45:03;100966.84;;;1.10;96.97
10060;BME280;5069;49.306;8.636;2023-03-03T06:48:05;100972.13;;;1.16;97.05
10060;BME280;5069;49.306;8.636;2023-03-03T06:51:22;100973.88;;;1.17;97.62
10060;BME280;5069;49.306;8.636;2023-03-03T06:54:27;100977.44;;;1.25;97.55
10060;BME280;5069;49.306;8.636;2023-03-03T06:57:32;100984.50;;;1.34;97.88
10060;BME280;5069;49.306;8.636;2023-03-03T07:00:34;100973.25;;;1.35;97.11
10060;BME280;5069;49.306;8.636;2023-03-03T07:03:36;100972.31;;;1.32;98.10
10060;BME280;5069;49.306;8.636;2023-03-03T07:06:37;100991.47;;;1.37;97.72
10060;BME280;5069;49.306;8.636;2023-03-03T07:09:38;100985.50;;;1.45;98.40
10060;BME280;5069;49.306;8.636;2023-03-03T07:12:40;100993.38;;;1.51;98.17
10060;BME280;5069;49.306;8.636;2023-03-03T07:15:41;100995.25;;;1.63;98.10
10060;BME280;5069;49.306;8.636;2023-03-03T07:18:51;100996.31;;;1.80;96.57
10060;BME280;5069;49.306;8.636;2023-03-03T07:21:53;100998.16;;;1.87;96.18
10060;BME280;5069;49.306;8.636;2023-03-03T07:24:58;101006.88;;;1.92;96.08
10060;BME280;5069;49.306;8.636;2023-03-03T07:31:26;101005.19;;;2.00;95.81
10060;BME280;5069;49.306;8.636;2023-03-03T07:34:39;101019.94;;;2.01;95.37
10060;BME280;5069;49.306;8.636;2023-03-03T07:37:44;101020.66;;;1.88;95.73
10060;BME280;5069;49.306;8.636;2023-03-03T07:40:51;101023.16;;;1.76;97.62
10060;BME280;5069;49.306;8.636;2023-03-03T07:46:57;101041.91;;;1.52;99.94
10060;BME280;5069;49.306;8.636;2023-03-03T07:50:13;101033.38;;;1.64;100.00
10060;BME280;5069;49.306;8.636;2023-03-03T07:53:28;101037.00;;;1.78;99.28
10060;BME280;5069;49.306;8.636;2023-03-03T07:56:35;101037.25;;;1.99;99.39
10060;BME280;5069;49.306;8.636;2023-03-03T07:59:42;101038.47;;;2.30;97.06
10060;BME280;5069;49.306;8.636;2023-03-03T08:03:11;101039.47;;;2.43;92.51
10060;BME280;5069;49.306;8.636;2023-03-03T08:09:50;101038.88;;;2.74;86.42
10060;BME280;5069;49.306;8.636;2023-03-03T08:12:59;101033.63;;;2.70;87.38
10060;BME280;5069;49.306;8.636;2023-03-03T08:16:20;101042.34;;;2.75;87.42
10060;BME280;5069;49.306;8.636;2023-03-03T08:19:25;101033.81;;;2.89;84.96
10060;BME280;5069;49.306;8.636;2023-03-03T08:25:30;101039.72;;;2.70;82.69
10060;BME280;5069;49.306;8.636;2023-03-03T08:28:32;101050.13;;;2.67;85.03
10060;BME280;5069;49.306;8.636;2023-03-03T08:31:33;101043.31;;;2.84;83.31
10060;BME280;5069;49.306;8.636;2023-03-03T08:34:42;101046.72;;;2.77;82.35
10060;BME280;5069;49.306;8.636;2023-03-03T08:37:43;101050.25;;;2.87;79.23
10060;BME280;5069;49.306;8.636;2023-03-03T08:40:46;101042.53;;;2.98;82.52
10060;BME280;5069;49.306;8.636;2023-03-03T08:43:47;101056.63;;;3.24;83.27
10060;BME280;5069;49.306;8.636;2023-03-03T08:46:49;101050.53;;;3.22;80.27
10060;BME280;5069;49.306;8.636;2023-03-03T08:49:50;101055.75;;;3.25;80.41
10060;BME280;5069;49.306;8.636;2023-03-03T08:52:52;101053.25;;;3.39;78.85
10060;BME280;5069;49.306;8.636;2023-03-03T08:55:54;101055.00;;;3.44;77.33
10060;BME280;5069;49.306;8.636;2023-03-03T08:58:55;101053.38;;;3.61;77.12
10060;BME280;5069;49.306;8.636;2023-03-03T09:02:06;101061.25;;;3.72;76.78
10060;BME280;5069;49.306;8.636;2023-03-03T09:05:09;101052.63;;;3.94;76.40
10060;BME280;5069;49.306;8.636;2023-03-03T09:08:11;101052.69;;;4.02;75.44
10060;BME280;5069;49.306;8.636;2023-03-03T09:11:13;101056.25;;;4.37;75.04
10060;BME280;5069;49.306;8.636;2023-03-03T09:14:17;101047.56;;;4.35;74.17
10060;BME280;5069;49.306;8.636;2023-03-03T09:17:23;101049.31;;;4.51;74.47
10060;BME280;5069;49.306;8.636;2023-03-03T09:20:36;101058.03;;;4.56;73.33
10060;BME280;5069;49.306;8.636;2023-03-03T09:23:41;101060.59;;;4.32;74.34
10060;BME280;5069;49.306;8.636;2023-03-03T09:26:46;101058.88;;;4.40;74.50
10060;BME280;5069;49.306;8.636;2023-03-03T09:29:48;101068.47;;;4.55;74.19
10060;BME280;5069;49.306;8.636;2023-03-03T09:32:50;101064.09;;;4.43;73.12
10060;BME280;5069;49.306;8.636;2023-03-03T09:35:57;101063.28;;;4.72;73.54
10060;BME280;5069;49.306;8.636;2023-03-03T09:39:15;101068.50;;;5.05;72.05
10060;BME280;5069;49.306;8.636;2023-03-03T09:42:30;101074.59;;;5.22;70.97
10060;BME280;5069;49.306;8.636;2023-03-03T09:45:53;101068.50;;;5.10;69.91
10060;BME280;5069;49.306;8.636;2023-03-03T09:52:39;101068.41;;;5.60;69.07
10060;BME280;5069;49.306;8.636;2023-03-03T09:59:20;101071.00;;;5.73;66.96
10060;BME280;5069;49.306;8.636;2023-03-03T10:02:47;101069.22;;;5.86;66.57
10060;BME280;5069;49.306;8.636;2023-03-03T10:09:48;101060.38;;;6.16;64.21
10060;BME280;5069;49.306;8.636;2023-03-03T10:13:06;101065.72;;;5.95;64.06
10060;BME280;5069;49.306;8.636;2023-03-03T10:16:33;101059.53;;;6.12;65.94
10060;BME280;5069;49.306;8.636;2023-03-03T10:19:40;101070.78;;;6.30;64.36
10060;BME280;5069;49.306;8.636;2023-03-03T10:23:19;101067.22;;;6.40;65.78
10060;BME280;5069;49.306;8.636;2023-03-03T10:26:34;101065.56;;;6.30;66.20
10060;BME280;5069;49.306;8.636;2023-03-03T10:30:10;101077.63;;;6.52;66.44
10060;BME280;5069;49.306;8.636;2023-03-03T10:50:40;101072.75;;;7.18;62.22
10060;BME280;5069;49.306;8.636;2023-03-03T10:53:52;101070.88;;;7.32;62.26
10060;BME280;5069;49.306;8.636;2023-03-03T10:57:09;101067.47;;;7.24;61.66
10060;BME280;5069;49.306;8.636;2023-03-03T11:00:33;101062.25;;;7.19;62.37
10060;BME280;5069;49.306;8.636;2023-03-03T11:03:47;101065.59;;;7.36;60.63
10060;BME280;5069;49.306;8.636;2023-03-03T11:07:02;101064.72;;;7.37;60.28
10060;BME280;5069;49.306;8.636;2023-03-03T11:13:40;101054.53;;;7.88;59.02
10060;BME280;5069;49.306;8.636;2023-03-03T11:20:37;101053.38;;;8.10;58.89
10060;BME280;5069;49.306;8.636;2023-03-03T11:27:28;101056.09;;;8.67;57.68
10060;BME280;5069;49.306;8.636;2023-03-03T11:30:48;101058.00;;;8.59;57.33
10060;BME280;5069;49.306;8.636;2023-03-03T11:37:09;101051.25;;;8.96;57.27
10060;BME280;5069;49.306;8.636;2023-03-03T11:40:27;101047.63;;;9.05;55.09
10060;BME280;5069;49.306;8.636;2023-03-03T11:43:52;101047.34;;;8.66;55.52
10060;BME280;5069;49.306;8.636;2023-03-03T11:46:56;101039.66;;;8.54;56.96
10060;BME280;5069;49.306;8.636;2023-03-03T11:50:04;101033.78;;;8.94;56.79
10060;BME280;5069;49.306;8.636;2023-03-03T11:53:37;101029.16;;;9.06;55.46
10060;BME280;5069;49.306;8.636;2023-03-03T11:56:43;101033.31;;;8.69;56.36
10060;BME280;5069;49.306;8.636;2023-03-03T12:03:07;101014.56;;;9.39;54.68
10060;BME280;5069;49.306;8.636;2023-03-03T12:06:23;101009.44;;;9.32;55.06
10060;BME280;5069;49.306;8.636;2023-03-03T12:13:05;101011.97;;;9.36;55.27
10060;BME280;5069;49.306;8.636;2023-03-03T12:19:53;101003.84;;;9.48;55.03
10060;BME280;5069;49.306;8.636;2023-03-03T12:36:48;100987.09;;;9.52;53.71
10060;BME280;5069;49.306;8.636;2023-03-03T12:40:07;100990.44;;;9.61;53.88
10060;BME280;5069;49.306;8.636;2023-03-03T12:46:42;100981.69;;;10.02;53.44
10060;BME280;5069;49.306;8.636;2023-03-03T12:53:34;100971.19;;;10.39;52.36
10060;BME280;5069;49.306;8.636;2023-03-03T12:56:47;100969.31;;;10.44;52.52
10060;BME280;5069;49.306;8.636;2023-03-03T13:03:55;100961.75;;;10.65;51.33
10060;BME280;5069;49.306;8.636;2023-03-03T13:07:18;100950.66;;;10.87;50.93
10060;BME280;5069;49.306;8.636;2023-03-03T13:10:35;100954.94;;;10.91;50.55
10060;BME280;5069;49.306;8.636;2023-03-03T13:17:33;100959.50;;;10.50;51.72
10060;BME280;5069;49.306;8.636;2023-03-03T13:27:06;100960.84;;;11.00;50.57
10060;BME280;5069;49.306;8.636;2023-03-03T13:30:25;100959.19;;;11.29;49.79
10060;BME280;5069;49.306;8.636;2023-03-03T13:33:32;100949.19;;;11.40;49.44
10060;BME280;5069;49.306;8.636;2023-03-03T13:36:41;100949.59;;;11.26;49.70
10060;BME280;5069;49.306;8.636;2023-03-03T13:39:56;100952.28;;;10.92;50.22
10060;BME280;5069;49.306;8.636;2023-03-03T13:43:09;100947.13;;;11.51;49.79
10060;BME280;5069;49.306;8.636;2023-03-03T13:57:34;100943.91;;;11.40;49.51
10060;BME280;5069;49.306;8.636;2023-03-03T14:07:13;100930.50;;;11.47;49.67
10060;BME280;5069;49.306;8.636;2023-03-03T14:10:25;100920.88;;;11.45;49.15
10060;BME280;5069;49.306;8.636;2023-03-03T14:13:36;100915.94;;;11.94;48.08
10060;BME280;5069;49.306;8.636;2023-03-03T14:16:56;100915.41;;;12.37;47.00
10060;BME280;5069;49.306;8.636;2023-03-03T14:20:21;100911.13;;;12.35;47.52
10060;BME280;5069;49.306;8.636;2023-03-03T14:23:32;100911.13;;;12.07;47.42
10060;BME280;5069;49.306;8.636;2023-03-03T14:26:52;100909.66;;;12.25;47.79
10060;BME280;5069;49.306;8.636;2023-03-03T14:29:53;100905.06;;;11.76;48.12
10060;BME280;5069;49.306;8.636;2023-03-03T14:36:10;100911.63;;;11.61;48.96
10060;BME280;5069;49.306;8.636;2023-03-03T14:39:33;100906.28;;;11.63;48.77
10060;BME280;5069;49.306;8.636;2023-03-03T14:49:34;100887.88;;;12.18;47.24
10060;BME280;5069;49.306;8.636;2023-03-03T14:52:37;100887.97;;;11.87;47.71
10060;BME280;5069;49.306;8.636;2023-03-03T14:55:42;100891.88;;;11.74;48.08
10060;BME280;5069;49.306;8.636;2023-03-03T14:58:43;100889.69;;;11.88;47.58
10060;BME280;5069;49.306;8.636;2023-03-03T15:01:46;100884.50;;;11.85;47.83
10060;BME280;5069;49.306;8.636;2023-03-03T15:04:48;100883.97;;;11.74;47.91
10060;BME280;5069;49.306;8.636;2023-03-03T15:14:20;100883.44;;;11.32;48.33
10060;BME280;5069;49.306;8.636;2023-03-03T15:17:26;100884.81;;;11.45;48.03
10060;BME280;5069;49.306;8.636;2023-03-03T15:27:21;100884.22;;;11.36;47.82
10060;BME280;5069;49.306;8.636;2023-03-03T15:30:32;100876.75;;;11.21;48.04
10060;BME280;5069;49.306;8.636;2023-03-03T15:37:51;100886.97;;;11.00;48.19
10060;BME280;5069;49.306;8.636;2023-03-03T15:41:20;100881.69;;;11.00;48.17
10060;BME280;5069;49.306;8.636;2023-03-03T15:44:32;100879.78;;;11.05;48.47
10060;BME280;5069;49.306;8.636;2023-03-03T15:51:09;100887.06;;;10.97;48.25
10060;BME280;5069;49.306;8.636;2023-03-03T16:01:22;100883.94;;;10.83;49.29
10060;BME280;5069;49.306;8.636;2023-03-03T16:04:33;100888.03;;;10.61;49.34
10060;BME280;5069;49.306;8.636;2023-03-03T16:07:49;100889.28;;;10.48;49.40
10060;BME280;5069;49.306;8.636;2023-03-03T16:14:21;100881.72;;;10.32;50.27
10060;BME280;5069;49.306;8.636;2023-03-03T16:17:53;100890.69;;;10.25;50.42
10060;BME280;5069;49.306;8.636;2023-03-03T16:24:23;100902.56;;;10.06;50.87
10060;BME280;5069;49.306;8.636;2023-03-03T16:27:57;100901.06;;;9.94;51.51
10060;BME280;5069;49.306;8.636;2023-03-03T16:31:24;100907.38;;;9.86;51.50
10060;BME280;5069;49.306;8.636;2023-03-03T16:38:07;100908.75;;;9.65;52.09
10060;BME280;5069;49.306;8.636;2023-03-03T16:41:14;100915.00;;;9.60;51.94
10060;BME280;5069;49.306;8.636;2023-03-03T16:44:36;100918.66;;;9.52;52.27
10060;BME280;5069;49.306;8.636;2023-03-03T16:48:12;100919.59;;;9.50;52.72
10060;BME280;5069;49.306;8.636;2023-03-03T16:51:30;100921.63;;;9.37;52.95
10060;BME280;5069;49.306;8.636;2023-03-03T16:54:38;100925.28;;;9.29;53.14
10060;BME280;5069;49.306;8.636;2023-03-03T17:04:50;100939.13;;;8.94;54.16
10060;BME280;5069;49.306;8.636;2023-03-03T17:14:48;100964.16;;;8.65;55.14
10060;BME280;5069;49.306;8.636;2023-03-03T17:17:58;100966.91;;;8.58;55.31
10060;BME280;5069;49.306;8.636;2023-03-03T17:21:28;100967.88;;;8.51;55.58
10060;BME280;5069;49.306;8.636;2023-03-03T17:28:14;100976.03;;;8.36;55.83
10060;BME280;5069;49.306;8.636;2023-03-03T17:31:34;100985.72;;;8.31;56.03
10060;BME280;5069;49.306;8.636;2023-03-03T17:35:07;100987.66;;;8.15;56.33
10060;BME280;5069;49.306;8.636;2023-03-03T17:38:36;100982.44;;;8.13;56.55
10060;BME280;5069;49.306;8.636;2023-03-03T17:42:12;100987.88;;;8.00;55.76
10060;BME280;5069;49.306;8.636;2023-03-03T17:45:16;100993.22;;;7.94;56.26
10060;BME280;5069;49.306;8.636;2023-03-03T17:48:35;100998.50;;;7.91;56.00
10060;BME280;5069;49.306;8.636;2023-03-03T17:51:58;100999.47;;;7.85;56.09
10060;BME280;5069;49.306;8.636;2023-03-03T17:58:20;101007.50;;;7.70;56.20
10060;BME280;5069;49.306;8.636;2023-03-03T18:01:44;101012.81;;;7.65;56.57
10060;BME280;5069;49.306;8.636;2023-03-03T18:12:24;101027.81;;;7.53;57.83
10060;BME280;5069;49.306;8.636;2023-03-03T18:22:45;101028.88;;;7.35;59.02
10060;BME280;5069;49.306;8.636;2023-03-03T18:32:19;101036.97;;;7.17;59.72
10060;BME280;5069;49.306;8.636;2023-03-03T18:35:40;101040.44;;;7.17;59.94
10060;BME280;5069;49.306;8.636;2023-03-03T18:38:45;101042.31;;;7.06;60.29
10060;BME280;5069;49.306;8.636;2023-03-03T18:48:59;101049.31;;;7.01;60.42
10060;BME280;5069;49.306;8.636;2023-03-03T18:53:14;101055.41;;;7.06;59.14
10060;BME280;5069;49.306;8.636;2023-03-03T18:56:02;101053.72;;;6.97;59.89
10060;BME280;5069;49.306;8.636;2023-03-03T18:59:10;101058.97;;;6.96;59.76
10060;BME280;5069;49.306;8.636;2023-03-03T19:02:36;101059.94;;;6.89;59.73
10060;BME280;5069;49.306;8.636;2023-03-03T19:05:48;101073.03;;;6.84;59.55
10060;BME280;5069;49.306;8.636;2023-03-03T19:08:55;101076.53;;;6.88;59.52
10060;BME280;5069;49.306;8.636;2023-03-03T19:11:58;101074.69;;;6.96;60.08
10060;BME280;5069;49.306;8.636;2023-03-03T19:14:59;101076.44;;;6.95;59.88
10060;BME280;5069;49.306;8.636;2023-03-03T19:18:04;101071.25;;;6.92;59.86
10060;BME280;5069;49.306;8.636;2023-03-03T19:21:24;101077.31;;;7.00;59.54
10060;BME280;5069;49.306;8.636;2023-03-03T19:24:31;101083.47;;;6.90;59.32
10060;BME280;5069;49.306;8.636;2023-03-03T19:27:40;101086.09;;;6.93;59.80
10060;BME280;5069;49.306;8.636;2023-03-03T19:34:06;101096.59;;;6.90;60.18
10060;BME280;5069;49.306;8.636;2023-03-03T19:40:45;101101.06;;;6.76;60.15
10060;BME280;5069;49.306;8.636;2023-03-03T19:47:32;101101.19;;;6.56;60.33
10060;BME280;5069;49.306;8.636;2023-03-03T19:56:49;101108.19;;;6.53;60.59
10060;BME280;5069;49.306;8.636;2023-03-03T19:59:59;101109.97;;;6.48;60.93
10060;BME280;5069;49.306;8.636;2023-03-03T20:03:53;101115.25;;;6.42;60.53
10060;BME280;5069;49.306;8.636;2023-03-03T20:07:26;101120.53;;;6.28;61.28
10060;BME280;5069;49.306;8.636;2023-03-03T20:10:40;101118.00;;;6.10;61.63
10060;BME280;5069;49.306;8.636;2023-03-03T20:13:54;101122.31;;;6.15;62.01
10060;BME280;5069;49.306;8.636;2023-03-03T20:17:18;101121.50;;;6.15;61.29
10060;BME280;5069;49.306;8.636;2023-03-03T20:23:47;101136.34;;;6.08;62.05
10060;BME280;5069;49.306;8.636;2023-03-03T20:27:23;101130.25;;;5.94;62.55
10060;BME280;5069;49.306;8.636;2023-03-03T20:30:34;101137.25;;;5.83;63.20
10060;BME280;5069;49.306;8.636;2023-03-03T20:33:54;101148.59;;;5.70;63.45
10060;BME280;5069;49.306;8.636;2023-03-03T20:37:08;101139.03;;;5.66;64.19
10060;BME280;5069;49.306;8.636;2023-03-03T20:40:24;101132.94;;;5.58;64.12
10060;BME280;5069;49.306;8.636;2023-03-03T20:53:18;101151.25;;;5.27;66.25
10060;BME280;5069;49.306;8.636;2023-03-03T20:56:32;101151.25;;;5.21;66.29
10060;BME280;5069;49.306;8.636;2023-03-03T20:59:50;101142.53;;;5.15;66.82
10060;BME280;5069;49.306;8.636;2023-03-03T21:03:09;101154.72;;;5.13;66.76
10060;BME280;5069;49.306;8.636;2023-03-03T21:06:16;101160.84;;;5.04;67.36
10060;BME280;5069;49.306;8.636;2023-03-03T21:12:29;101159.94;;;4.84;69.43